Nearby METAR Reports

 

KCIC - Chico Municipal, California, USA
Distance from station: SSW 12mi, 20km
Updated: Fri, 25-May-2018 8:35pm PDT
Overcast
Overcast
 Wind from E
Wind: E 3 mph , 6 km/h
Temperature: 61°F , 16°C
Dew Point: 48°F , 9°C
Humidity: 63%
Barometer: 30.08 inHg , 1018.6 hPa
Clouds: Overcast
Visibility: 10 miles , 16 km
Cloud details: Mostly cloudy 5500 ft
Overcast 6500 ft
2018/05/26 03:35 KCIC 260335Z AUTO 09003KT 10SM BKN055 OVC065 16/09 A3008 RMK AO1
KOVE - Oroville, California, USA
Distance from station: SSE 31mi, 50km
Updated: Fri, 25-May-2018 7:53pm PDT
Mostly cloudy
Mostly cloudy
 Wind from E
Wind: E 6 mph , 9 km/h
Temperature: 63°F , 17°C
Dew Point: 52°F , 11°C
Humidity: 68%
Barometer: 30.08 inHg , 1018.6 hPa
Clouds: Mostly cloudy
Visibility: 10 miles , 16 km
Cloud details: Mostly cloudy 6000 ft
2018/05/26 02:53 KOVE 260253Z AUTO 10005KT 10SM BKN060 17/11 A3008 RMK AO2 SLP188 T01670111 56007
 
KRBL - Red Bluff, California, USA
Distance from station: WNW 31mi, 50km
Updated: Fri, 25-May-2018 8:34pm PDT
Light rain, Mist, Overcast
Light rain, Mist, Overcast
 Wind from ENE
Wind: ENE 5 mph , 7 km/h
Temperature: 57°F , 14°C
Dew Point: 55°F , 13°C
Humidity: 94%
Barometer: 30.08 inHg , 1018.6 hPa
Summary: Light rain, Mist
Clouds: Overcast
Visibility: 6 miles , 10 km
Cloud details: Partly cloudy 800 ft
Overcast 2400 ft
2018/05/26 03:34 KRBL 260334Z AUTO 06004KT 6SM -RA BR SCT008 OVC024 14/13 A3008 RMK AO2 P0005 T01390128 $
KRDD - Redding, California, USA
Distance from station: NW 50mi, 80km
Updated: Fri, 25-May-2018 7:53pm PDT
Light rain, Mist, Overcast
Light rain, Mist, Overcast
 Wind from calm
Wind: Calm
Temperature: 55°F , 13°C
Dew Point: 55°F , 13°C
Humidity: 100%
Barometer: 30.07 inHg , 1018.3 hPa
Summary: Light rain, Mist
Clouds: Overcast
Visibility: 6 miles , 10 km
Cloud details: Partly cloudy 600 ft
Mostly cloudy 2200 ft
Overcast 3500 ft
2018/05/26 02:53 KRDD 260253Z 00000KT 6SM -RA BR SCT006 BKN022 OVC035 13/13 A3007 RMK AO2 SLP181 P0011 60028 T01330128 55002
 
KMYV - Marysville, California, USA
Distance from station: S 59mi, 95km
Updated: Wed, 31-Dec-1969 4:00pm PST
NOT Current
unable to load KMYV data RC=404 Not Found
unable to load KMYV data RC=404 Not Found
 
KBAB - Beale Afb/Marysv, California, USA
Distance from station: SSE 59mi, 96km
Updated: Wed, 31-Dec-1969 4:00pm PST
NOT Current
unable to load KBAB data RC=404 Not Found
unable to load KBAB data RC=404 Not Found
 
 
KGOO - Grass Valley, California, USA
Distance from station: SE 63mi, 102km
Updated: Fri, 25-May-2018 8:35pm PDT
Overcast
Overcast
 Wind from calm
Wind: Calm
Temperature: 48°F , 9°C
Dew Point: 46°F , 8°C
Humidity: 94%
Barometer: 30.11 inHg , 1019.6 hPa
Clouds: Overcast
Visibility: 10 miles , 16 km
Cloud details: Mostly cloudy 1800 ft
Overcast 3600 ft
2018/05/26 03:35 KGOO 260335Z AUTO 00000KT 10SM BKN018 OVC036 09/08 A3011 RMK AO1
KBLU - Emigrant Gap, California, USA
Distance from station: SE 71mi, 115km
Updated: Fri, 25-May-2018 7:52am PDT
NOT Current

 
Temperature: 43°F , 6°C
Dew Point: 43°F , 6°C
Humidity: 100%
Barometer: 30.09 inHg , 1019 hPa
2018/05/25 14:52 KBLU 251452Z AUTO 06/06 A3009 RMK AO2 RAE1359 SLP153 P0000 60007 T00560056 TSNO $
 
KLHM - Lincoln, California, USA
Distance from station: SSE 74mi, 119km
Updated: Fri, 25-May-2018 8:35pm PDT
Partly cloudy
Partly cloudy
 Wind from calm
Wind: Calm
Temperature: 59°F , 15°C
Dew Point: 50°F , 10°C
Humidity: 72%
Barometer: 30.07 inHg , 1018.3 hPa
Clouds: Partly cloudy
Visibility: 10 miles , 16 km
Cloud details: Partly cloudy 7000 ft
2018/05/26 03:35 KLHM 260335Z AUTO 00000KT 10SM SCT070 15/10 A3007 RMK AO1
KAUN - Auburn Muni, California, USA
Distance from station: SSE 77mi, 123km
Updated: Fri, 25-May-2018 8:35pm PDT
Mostly cloudy
Mostly cloudy
 Wind from calm
Wind: Calm
Temperature: 55°F , 13°C
Dew Point: 46°F , 8°C
Humidity: 72%
Barometer: 30.10 inHg , 1019.3 hPa
Clouds: Mostly cloudy
Visibility: 10 miles , 16 km
Cloud details: Few Clouds 1800 ft
Few Clouds 2500 ft
Mostly cloudy 6000 ft
2018/05/26 03:35 KAUN 260335Z AUTO 00000KT 10SM FEW018 FEW025 BKN060 13/08 A3010 RMK AO1
 
KO54 - Weaverville, California, USA
Distance from station: NW 84mi, 135km
Updated: Fri, 25-May-2018 8:35pm PDT
Overcast
Overcast
 Wind from calm
Wind: Calm
Temperature: 52°F , 11°C
Dew Point: 50°F , 10°C
Humidity: 94%
Barometer: 30.06 inHg , 1017.9 hPa
Clouds: Overcast
Visibility: 2 1/2 miles , 2 km
Cloud details: Overcast 300 ft
2018/05/26 03:35 KO54 260335Z AUTO 00000KT 2 1/2SM OVC003 11/10 A3006 RMK AO1 P0001
KSMF - Sacramento/Metro, California, USA
Distance from station: S 86mi, 139km
Updated: Fri, 25-May-2018 7:53pm PDT
Few Clouds
Few Clouds
 Wind from SSE
Wind: SSE 8 mph , 13 km/h
Temperature: 63°F , 17°C
Dew Point: 48°F , 9°C
Humidity: 59%
Barometer: 30.06 inHg , 1017.9 hPa
Clouds: Few Clouds
Visibility: 10 miles , 16 km
Cloud details: Few Clouds 7000 ft
2018/05/26 02:53 KSMF 260253Z 16007KT 10SM FEW070 17/09 A3006 RMK AO2 SLP178 T01720094 55005
 
KMCC - Mcclellan Afb, California, USA
Distance from station: SSE 90mi, 145km
Updated: Fri, 25-May-2018 8:30pm PDT
Mostly cloudy
Mostly cloudy
 Wind from SW
Wind: SW 9 mph , 15 km/h
Temperature: 63°F , 17°C
Dew Point: 48°F , 9°C
Humidity: 59%
Barometer: 30.09 inHg , 1019 hPa
Clouds: Mostly cloudy
Visibility: 10 miles , 16 km
Cloud details: Mostly cloudy 7000 ft
2018/05/26 03:30 KMCC 260330Z AUTO 22008KT 10SM BKN070 17/09 A3009 RMK AO2
KTRK - Truckee Tahoe, California, USA
Distance from station: ESE 96mi, 155km
Updated: Fri, 25-May-2018 8:35pm PDT
Overcast
Overcast
 Wind from W
Wind: W 9 mph , 15 km/h
Temperature: 45°F , 7°C
Wind Chill: 40°F , 4°C
Dew Point: 37°F , 3°C
Humidity: 76%
Barometer: 30.09 inHg , 1019 hPa
Clouds: Overcast
Visibility: 10 miles , 16 km
Cloud details: Overcast 3700 ft
2018/05/26 03:35 KTRK 260335Z AUTO 28008KT 10SM OVC037 07/03 A3009 RMK AO2
 
KUKI - Ukiah, California, USA
Distance from station: SW 97mi, 156km
Updated: Fri, 25-May-2018 7:56pm PDT
Light rain, Overcast
Light rain, Overcast
 Wind from NE
Wind: NE 6 mph , 9 km/h
Temperature: 57°F , 14°C
Dew Point: 50°F , 10°C
Humidity: 77%
Barometer: 30.09 inHg , 1019 hPa
Summary: Light rain
Clouds: Overcast
Visibility: 10 miles , 16 km
Cloud details: Overcast 2400 ft
2018/05/26 02:56 KUKI 260256Z AUTO 05005KT 10SM -RA OVC024 14/10 A3009 RMK AO2 RAB44 SLP186 P0000 60000 T01390100 56002
KEDU - Davis, California, USA
Distance from station: S 97mi, 157km
Updated: Fri, 25-May-2018 8:40pm PDT
Few Clouds
Few Clouds
 Wind from SW
Wind: SW 3 mph , 6 km/h
Temperature: 59°F , 15°C
Dew Point: 50°F , 10°C
Humidity: 72%
Barometer: 30.08 inHg , 1018.6 hPa
Clouds: Few Clouds
Visibility: 9 miles , 14 km
Cloud details: Few Clouds 7000 ft
2018/05/26 03:40 KEDU 260340Z AUTO 22003KT 9SM FEW070 15/10 A3008 RMK AO1
 
KMHR - Mather Field, California, USA
Distance from station: SSE 100mi, 161km
Updated: Fri, 25-May-2018 7:50pm PDT
Mostly cloudy
Mostly cloudy
 Wind from SSW
Wind: SSW 5 mph , 7 km/h
Temperature: 63°F , 17°C
Dew Point: 48°F , 9°C
Humidity: 59%
Barometer: 30.07 inHg , 1018.3 hPa
Clouds: Mostly cloudy
Visibility: 10 miles , 16 km
Cloud details: Mostly cloudy 7000 ft
2018/05/26 02:50 KMHR 260250Z 21004KT 10SM BKN070 17/09 A3007
KMHS - Mount Shasta, California, USA
Distance from station: NNW 100mi, 161km
Updated: Fri, 25-May-2018 8:05pm PDT
Rain, Mist, Overcast
Rain, Mist, Overcast
 Wind from calm
Wind: Calm
Temperature: 46°F , 8°C
Dew Point: 45°F , 7°C
Humidity: 93%
Barometer: 30.05 inHg , 1017.6 hPa
Summary: Rain, Mist
Clouds: Overcast
Visibility: 3 miles , 5 km
Cloud details: Few Clouds 600 ft
Mostly cloudy 1400 ft
Overcast 2600 ft
2018/05/26 03:05 KMHS 260305Z AUTO 00000KT 3SM RA BR FEW006 BKN014 OVC026 08/07 A3005 RMK AO2 P0001 T00780072
 
KRTS - Reno/Stead, Nevada, USA
Distance from station: E 100mi, 161km
Updated: Fri, 25-May-2018 8:35pm PDT
Clear
Clear
 Wind from NW
Wind: NW 12 mph , 19 km/h
Temperature: 48°F , 9°C
Wind Chill: 43°F , 6°C
Dew Point: 39°F , 4°C
Humidity: 71%
Barometer: 30.05 inHg , 1017.6 hPa
Clouds: Clear
Visibility: 10 miles , 16 km
2018/05/26 03:35 KRTS 260335Z AUTO 31010KT 10SM CLR 09/04 A3005 RMK AO2
KSAC - Sacramento, California, USA
Distance from station: S 100mi, 162km
Updated: Fri, 25-May-2018 7:53pm PDT
Few Clouds
Few Clouds
 Wind from WSW
Wind: WSW 8 mph , 13 km/h
Temperature: 63°F , 17°C
Dew Point: 50°F , 10°C
Humidity: 64%
Barometer: 30.08 inHg , 1018.6 hPa
Clouds: Few Clouds
Visibility: 10 miles , 16 km
Cloud details: Few Clouds 3900 ft
2018/05/26 02:53 KSAC 260253Z 24007KT 10SM FEW039 17/10 A3008 RMK AO2 SLP184 T01670100 55003